X  Fechar Metar - Info de Aeroporto     EBBR Brussels Airport
Temperatura
7°C Temperatura
7°C Ptº Orvalho
100% Humidade



Vento
3 M/S
6 MPH
10 KM/H
5 NÓS



270°
O
Condições Atuais

Pouco Nublado Pouco Nublado
Pressão 1037.91 (hPa) - 30.65 (inHg)
Visibilidade 6.2 (milha) - 10 (km)
Aeroporto
Código-Aeropoto EBBR

Localização: Brussels Airport
Distância: 10 (km)

Metar:
EBBR 050020Z 27005KT 9999 FEW021 07/07 Q1038 NOSIG

Hora: 05-02-2023 01:20 CET